LYKV weather

Morava Airport
Kraljevo, Raška, Serbia

Public forecast

Using degrees Celsius for public forecast. Weather courtesy of forecast.io.

METAR (pilot weather report)

Retrieved 2019/06/27 04:30 UTC (1 hour ago):

LYKV 270430Z 00000KT 9999 SCT047 20/20 Q1021 NOSIG

TAF (pilot weather forecast)

Forecast is more than 12 hours old.

Retrieved 2019/06/26 00:00 UTC (1 day ago):

TAF LYKV 262300Z 2700/2724 02005KT CAVOK TX32/2713Z TN19/2703Z TEMPO 2703/2705 3000 BR